sensor_id;sensor_type;location;lat;lon;timestamp;pressure;altitude;pressure_sealevel;temperature;humidity
28683;BME280;15862;43.062;25.626;2023-02-26T00:02:03;98743.81;;;15.08;70.73
28683;BME280;15862;43.062;25.626;2023-02-26T00:04:29;98731.44;;;15.10;70.00
28683;BME280;15862;43.062;25.626;2023-02-26T00:06:54;98744.09;;;15.13;69.77
28683;BME280;15862;43.062;25.626;2023-02-26T00:09:21;98748.16;;;15.16;69.22
28683;BME280;15862;43.062;25.626;2023-02-26T00:11:47;98739.38;;;15.17;68.81
28683;BME280;15862;43.062;25.626;2023-02-26T00:14:14;98721.72;;;15.04;68.12
28683;BME280;15862;43.062;25.626;2023-02-26T00:16:40;98743.78;;;15.24;67.57
28683;BME280;15862;43.062;25.626;2023-02-26T00:19:07;98748.00;;;15.17;67.36
28683;BME280;15862;43.062;25.626;2023-02-26T00:21:35;98751.56;;;15.16;67.05
28683;BME280;15862;43.062;25.626;2023-02-26T00:24:00;98735.59;;;15.19;65.06
28683;BME280;15862;43.062;25.626;2023-02-26T00:26:27;98758.19;;;15.34;64.47
28683;BME280;15862;43.062;25.626;2023-02-26T00:28:54;98765.03;;;15.35;64.17
28683;BME280;15862;43.062;25.626;2023-02-26T00:31:21;98760.63;;;15.36;64.32
28683;BME280;15862;43.062;25.626;2023-02-26T00:33:49;98777.72;;;15.30;65.80
28683;BME280;15862;43.062;25.626;2023-02-26T00:36:27;98754.75;;;15.34;66.17
28683;BME280;15862;43.062;25.626;2023-02-26T00:41:38;98761.81;;;15.26;67.56
28683;BME280;15862;43.062;25.626;2023-02-26T00:44:04;98764.22;;;15.27;68.20
28683;BME280;15862;43.062;25.626;2023-02-26T00:46:48;98768.44;;;15.20;68.56
28683;BME280;15862;43.062;25.626;2023-02-26T00:49:22;98764.28;;;15.11;70.94
28683;BME280;15862;43.062;25.626;2023-02-26T00:51:55;98753.59;;;14.98;71.40
28683;BME280;15862;43.062;25.626;2023-02-26T00:54:23;98746.28;;;14.94;72.12
28683;BME280;15862;43.062;25.626;2023-02-26T00:56:50;98771.28;;;15.03;72.12
28683;BME280;15862;43.062;25.626;2023-02-26T00:59:18;98756.19;;;14.98;72.61
28683;BME280;15862;43.062;25.626;2023-02-26T01:01:44;98747.63;;;14.82;73.94
28683;BME280;15862;43.062;25.626;2023-02-26T01:04:11;98757.53;;;14.86;74.59
28683;BME280;15862;43.062;25.626;2023-02-26T01:06:45;98754.63;;;14.81;75.05
28683;BME280;15862;43.062;25.626;2023-02-26T01:09:31;98741.75;;;14.88;74.50
28683;BME280;15862;43.062;25.626;2023-02-26T01:12:17;98732.50;;;14.85;74.21
28683;BME280;15862;43.062;25.626;2023-02-26T01:14:43;98742.91;;;14.85;73.49
28683;BME280;15862;43.062;25.626;2023-02-26T01:17:27;98747.75;;;14.96;71.73
28683;BME280;15862;43.062;25.626;2023-02-26T01:20:15;98729.84;;;15.01;70.75
28683;BME280;15862;43.062;25.626;2023-02-26T01:25:13;98746.72;;;15.05;70.36
28683;BME280;15862;43.062;25.626;2023-02-26T01:27:39;98741.72;;;15.04;69.78
28683;BME280;15862;43.062;25.626;2023-02-26T01:30:08;98753.53;;;15.14;68.85
28683;BME280;15862;43.062;25.626;2023-02-26T01:32:44;98755.81;;;15.17;68.01
28683;BME280;15862;43.062;25.626;2023-02-26T01:35:31;98756.09;;;15.22;67.89
28683;BME280;15862;43.062;25.626;2023-02-26T01:43:30;98751.66;;;15.38;64.62
28683;BME280;15862;43.062;25.626;2023-02-26T01:48:47;98776.28;;;15.58;62.30
28683;BME280;15862;43.062;25.626;2023-02-26T01:51:13;98763.19;;;15.66;61.27
28683;BME280;15862;43.062;25.626;2023-02-26T01:53:38;98759.28;;;15.70;61.11
28683;BME280;15862;43.062;25.626;2023-02-26T01:56:10;98767.69;;;15.80;59.90
28683;BME280;15862;43.062;25.626;2023-02-26T01:58:37;98770.56;;;15.85;59.40
28683;BME280;15862;43.062;25.626;2023-02-26T02:01:04;98765.66;;;15.90;58.40
28683;BME280;15862;43.062;25.626;2023-02-26T02:03:33;98772.56;;;16.06;57.67
28683;BME280;15862;43.062;25.626;2023-02-26T02:06:04;98769.13;;;16.05;57.26
28683;BME280;15862;43.062;25.626;2023-02-26T02:08:32;98780.28;;;16.13;56.19
28683;BME280;15862;43.062;25.626;2023-02-26T02:11:00;98765.28;;;16.15;56.24
28683;BME280;15862;43.062;25.626;2023-02-26T02:18:55;98791.16;;;16.17;55.28
28683;BME280;15862;43.062;25.626;2023-02-26T02:21:42;98786.44;;;16.20;55.38
28683;BME280;15862;43.062;25.626;2023-02-26T02:24:32;98799.47;;;16.20;55.23
28683;BME280;15862;43.062;25.626;2023-02-26T02:32:09;98811.22;;;16.16;56.47
28683;BME280;15862;43.062;25.626;2023-02-26T02:34:36;98810.28;;;16.09;57.28
28683;BME280;15862;43.062;25.626;2023-02-26T02:37:20;98810.56;;;16.14;58.04
28683;BME280;15862;43.062;25.626;2023-02-26T02:39:53;98806.81;;;15.95;59.36
28683;BME280;15862;43.062;25.626;2023-02-26T02:42:27;98809.41;;;15.95;60.17
28683;BME280;15862;43.062;25.626;2023-02-26T02:45:07;98800.22;;;15.84;60.78
28683;BME280;15862;43.062;25.626;2023-02-26T02:47:36;98785.84;;;15.66;61.73
28683;BME280;15862;43.062;25.626;2023-02-26T02:50:14;98792.03;;;15.65;62.27
28683;BME280;15862;43.062;25.626;2023-02-26T02:52:57;98812.84;;;15.65;62.29
28683;BME280;15862;43.062;25.626;2023-02-26T02:55:33;98810.41;;;15.63;63.17
28683;BME280;15862;43.062;25.626;2023-02-26T02:58:05;98808.38;;;15.51;63.50
28683;BME280;15862;43.062;25.626;2023-02-26T03:00:34;98799.59;;;15.52;63.68
28683;BME280;15862;43.062;25.626;2023-02-26T03:03:22;98800.81;;;15.64;62.71
28683;BME280;15862;43.062;25.626;2023-02-26T03:05:49;98830.06;;;15.74;62.22
28683;BME280;15862;43.062;25.626;2023-02-26T03:08:17;98831.97;;;15.80;61.27
28683;BME280;15862;43.062;25.626;2023-02-26T03:10:44;98822.66;;;15.85;60.89
28683;BME280;15862;43.062;25.626;2023-02-26T03:13:16;98838.75;;;15.89;60.26
28683;BME280;15862;43.062;25.626;2023-02-26T03:15:51;98843.97;;;15.89;60.20
28683;BME280;15862;43.062;25.626;2023-02-26T03:23:59;98856.03;;;15.90;60.09
28683;BME280;15862;43.062;25.626;2023-02-26T03:26:31;98843.97;;;15.89;60.18
28683;BME280;15862;43.062;25.626;2023-02-26T03:29:04;98862.53;;;15.86;61.54
28683;BME280;15862;43.062;25.626;2023-02-26T03:31:38;98848.75;;;15.77;62.32
28683;BME280;15862;43.062;25.626;2023-02-26T03:34:20;98853.94;;;15.85;63.64
28683;BME280;15862;43.062;25.626;2023-02-26T03:37:22;98843.72;;;15.76;64.94
28683;BME280;15862;43.062;25.626;2023-02-26T03:39:53;98870.94;;;15.73;65.86
28683;BME280;15862;43.062;25.626;2023-02-26T03:42:48;98861.06;;;15.61;67.38
28683;BME280;15862;43.062;25.626;2023-02-26T03:45:18;98851.81;;;15.50;67.59
28683;BME280;15862;43.062;25.626;2023-02-26T03:47:47;98843.44;;;15.63;67.46
28683;BME280;15862;43.062;25.626;2023-02-26T03:50:23;98852.44;;;15.52;68.18
28683;BME280;15862;43.062;25.626;2023-02-26T03:52:53;98856.38;;;15.48;68.76
28683;BME280;15862;43.062;25.626;2023-02-26T03:55:25;98855.56;;;15.48;69.63
28683;BME280;15862;43.062;25.626;2023-02-26T03:57:52;98855.22;;;15.51;69.64
28683;BME280;15862;43.062;25.626;2023-02-26T04:00:18;98854.44;;;15.50;69.61
28683;BME280;15862;43.062;25.626;2023-02-26T04:02:57;98851.66;;;15.52;69.52
28683;BME280;15862;43.062;25.626;2023-02-26T04:05:27;98825.97;;;15.41;69.76
28683;BME280;15862;43.062;25.626;2023-02-26T04:07:53;98846.75;;;15.49;69.49
28683;BME280;15862;43.062;25.626;2023-02-26T04:10:34;98844.97;;;15.57;68.83
28683;BME280;15862;43.062;25.626;2023-02-26T04:13:02;98847.72;;;15.56;69.20
28683;BME280;15862;43.062;25.626;2023-02-26T04:15:28;98847.25;;;15.52;69.74
28683;BME280;15862;43.062;25.626;2023-02-26T04:17:53;98835.09;;;15.45;70.07
28683;BME280;15862;43.062;25.626;2023-02-26T04:20:19;98838.34;;;15.47;70.41
28683;BME280;15862;43.062;25.626;2023-02-26T04:22:44;98845.91;;;15.64;69.48
28683;BME280;15862;43.062;25.626;2023-02-26T04:25:09;98815.44;;;15.65;68.58
28683;BME280;15862;43.062;25.626;2023-02-26T04:27:35;98829.88;;;15.75;68.78
28683;BME280;15862;43.062;25.626;2023-02-26T04:30:00;98832.47;;;15.75;68.86
28683;BME280;15862;43.062;25.626;2023-02-26T04:32:26;98827.28;;;15.75;69.45
28683;BME280;15862;43.062;25.626;2023-02-26T04:34:51;98831.69;;;15.75;69.40
28683;BME280;15862;43.062;25.626;2023-02-26T04:37:16;98829.41;;;15.72;69.78
28683;BME280;15862;43.062;25.626;2023-02-26T04:39:42;98849.28;;;15.73;69.70
28683;BME280;15862;43.062;25.626;2023-02-26T04:42:07;98834.47;;;15.73;70.42
28683;BME280;15862;43.062;25.626;2023-02-26T04:44:33;98843.22;;;15.80;70.06
28683;BME280;15862;43.062;25.626;2023-02-26T04:46:58;98842.78;;;15.69;72.02
28683;BME280;15862;43.062;25.626;2023-02-26T04:49:23;98859.22;;;15.69;72.16
28683;BME280;15862;43.062;25.626;2023-02-26T04:51:49;98857.28;;;15.63;73.27
28683;BME280;15862;43.062;25.626;2023-02-26T04:54:14;98860.22;;;15.60;74.71
28683;BME280;15862;43.062;25.626;2023-02-26T04:56:40;98855.38;;;15.57;75.41
28683;BME280;15862;43.062;25.626;2023-02-26T04:59:06;98861.38;;;15.58;77.07
28683;BME280;15862;43.062;25.626;2023-02-26T05:01:31;98850.69;;;15.45;78.88
28683;BME280;15862;43.062;25.626;2023-02-26T05:03:57;98852.63;;;15.51;80.02
28683;BME280;15862;43.062;25.626;2023-02-26T05:06:22;98854.59;;;15.41;81.02
28683;BME280;15862;43.062;25.626;2023-02-26T05:08:48;98859.19;;;15.39;82.41
28683;BME280;15862;43.062;25.626;2023-02-26T05:11:13;98863.25;;;15.41;82.56
28683;BME280;15862;43.062;25.626;2023-02-26T05:13:38;98867.47;;;15.42;82.34
28683;BME280;15862;43.062;25.626;2023-02-26T05:16:05;98863.41;;;15.40;83.14
28683;BME280;15862;43.062;25.626;2023-02-26T05:18:31;98865.19;;;15.39;83.19
28683;BME280;15862;43.062;25.626;2023-02-26T05:20:57;98850.28;;;15.26;83.37
28683;BME280;15862;43.062;25.626;2023-02-26T05:23:22;98861.78;;;15.39;83.66
28683;BME280;15862;43.062;25.626;2023-02-26T05:25:48;98875.78;;;15.38;83.69
28683;BME280;15862;43.062;25.626;2023-02-26T05:28:14;98864.06;;;15.34;84.00
28683;BME280;15862;43.062;25.626;2023-02-26T05:30:40;98862.50;;;15.25;83.85
28683;BME280;15862;43.062;25.626;2023-02-26T05:33:05;98886.16;;;15.46;83.40
28683;BME280;15862;43.062;25.626;2023-02-26T05:35:31;98883.88;;;15.51;82.64
28683;BME280;15862;43.062;25.626;2023-02-26T05:37:56;98890.31;;;15.63;81.26
28683;BME280;15862;43.062;25.626;2023-02-26T05:40:22;98886.63;;;15.57;81.38
28683;BME280;15862;43.062;25.626;2023-02-26T05:42:48;98896.47;;;15.70;80.48
28683;BME280;15862;43.062;25.626;2023-02-26T05:45:13;98896.16;;;15.73;79.94
28683;BME280;15862;43.062;25.626;2023-02-26T05:47:38;98888.97;;;15.75;80.02
28683;BME280;15862;43.062;25.626;2023-02-26T05:50:05;98900.19;;;15.75;79.51
28683;BME280;15862;43.062;25.626;2023-02-26T05:52:30;98888.16;;;15.74;79.25
28683;BME280;15862;43.062;25.626;2023-02-26T05:54:56;98879.88;;;15.71;79.40
28683;BME280;15862;43.062;25.626;2023-02-26T05:57:22;98892.03;;;15.86;79.47
28683;BME280;15862;43.062;25.626;2023-02-26T05:59:48;98900.44;;;15.88;80.11
28683;BME280;15862;43.062;25.626;2023-02-26T06:02:13;98890.25;;;15.79;80.84
28683;BME280;15862;43.062;25.626;2023-02-26T06:04:38;98910.09;;;15.80;82.08
28683;BME280;15862;43.062;25.626;2023-02-26T06:07:04;98901.97;;;15.83;82.34
28683;BME280;15862;43.062;25.626;2023-02-26T06:09:29;98913.41;;;15.74;83.79
28683;BME280;15862;43.062;25.626;2023-02-26T06:11:55;98914.38;;;15.73;84.18
28683;BME280;15862;43.062;25.626;2023-02-26T06:14:20;98910.31;;;15.70;84.71
28683;BME280;15862;43.062;25.626;2023-02-26T06:16:45;98900.34;;;15.82;84.82
28683;BME280;15862;43.062;25.626;2023-02-26T06:19:11;98908.16;;;15.82;85.85
28683;BME280;15862;43.062;25.626;2023-02-26T06:21:36;98942.81;;;15.82;87.91
28683;BME280;15862;43.062;25.626;2023-02-26T06:24:02;98933.56;;;15.80;88.01
28683;BME280;15862;43.062;25.626;2023-02-26T06:26:27;98940.09;;;15.76;89.18
28683;BME280;15862;43.062;25.626;2023-02-26T06:28:52;98925.75;;;15.72;90.07
28683;BME280;15862;43.062;25.626;2023-02-26T06:31:18;98941.19;;;15.81;89.55
28683;BME280;15862;43.062;25.626;2023-02-26T06:33:43;98938.75;;;15.80;90.41
28683;BME280;15862;43.062;25.626;2023-02-26T06:36:09;98948.50;;;15.86;90.09
28683;BME280;15862;43.062;25.626;2023-02-26T06:38:34;98944.63;;;15.82;90.60
28683;BME280;15862;43.062;25.626;2023-02-26T06:41:00;98946.53;;;15.88;90.51
28683;BME280;15862;43.062;25.626;2023-02-26T06:43:25;98948.47;;;15.94;89.78
28683;BME280;15862;43.062;25.626;2023-02-26T06:45:51;98953.84;;;15.92;90.32
28683;BME280;15862;43.062;25.626;2023-02-26T06:48:16;98955.59;;;16.00;89.97
28683;BME280;15862;43.062;25.626;2023-02-26T06:50:42;98948.16;;;15.97;89.38
28683;BME280;15862;43.062;25.626;2023-02-26T06:53:07;98950.84;;;16.03;89.27
28683;BME280;15862;43.062;25.626;2023-02-26T06:55:33;98947.50;;;15.95;89.34
28683;BME280;15862;43.062;25.626;2023-02-26T06:57:58;98932.81;;;16.02;88.69
28683;BME280;15862;43.062;25.626;2023-02-26T07:00:24;98947.94;;;16.06;89.33
28683;BME280;15862;43.062;25.626;2023-02-26T07:02:50;98934.69;;;16.15;88.30
28683;BME280;15862;43.062;25.626;2023-02-26T07:05:16;98911.97;;;16.32;86.72
28683;BME280;15862;43.062;25.626;2023-02-26T07:07:42;98925.13;;;16.38;85.65
28683;BME280;15862;43.062;25.626;2023-02-26T07:10:09;98921.31;;;16.49;84.77
28683;BME280;15862;43.062;25.626;2023-02-26T07:12:35;98922.97;;;16.64;83.10
28683;BME280;15862;43.062;25.626;2023-02-26T07:15:03;98936.72;;;16.81;80.32
28683;BME280;15862;43.062;25.626;2023-02-26T07:17:29;98930.34;;;16.83;79.00
28683;BME280;15862;43.062;25.626;2023-02-26T07:19:54;98908.75;;;16.89;79.30
28683;BME280;15862;43.062;25.626;2023-02-26T07:22:20;98908.03;;;16.95;79.32
28683;BME280;15862;43.062;25.626;2023-02-26T07:24:45;98894.63;;;16.83;79.42
28683;BME280;15862;43.062;25.626;2023-02-26T07:27:11;98881.41;;;16.85;79.97
28683;BME280;15862;43.062;25.626;2023-02-26T07:29:36;98901.84;;;16.96;79.88
28683;BME280;15862;43.062;25.626;2023-02-26T07:32:02;98904.47;;;16.96;80.15
28683;BME280;15862;43.062;25.626;2023-02-26T07:34:28;98884.50;;;17.03;79.10
28683;BME280;15862;43.062;25.626;2023-02-26T07:36:53;98882.63;;;17.11;78.64
28683;BME280;15862;43.062;25.626;2023-02-26T07:39:19;98903.13;;;17.14;78.45
28683;BME280;15862;43.062;25.626;2023-02-26T07:41:44;98865.41;;;17.17;77.87
28683;BME280;15862;43.062;25.626;2023-02-26T07:44:10;98881.38;;;17.22;76.35
28683;BME280;15862;43.062;25.626;2023-02-26T07:46:35;98860.13;;;17.25;76.68
28683;BME280;15862;43.062;25.626;2023-02-26T07:49:01;98864.03;;;17.29;74.78
28683;BME280;15862;43.062;25.626;2023-02-26T07:51:26;98850.31;;;17.27;73.75
28683;BME280;15862;43.062;25.626;2023-02-26T07:53:51;98853.31;;;17.38;73.06
28683;BME280;15862;43.062;25.626;2023-02-26T07:56:17;98831.78;;;17.51;69.94
28683;BME280;15862;43.062;25.626;2023-02-26T07:58:42;98848.06;;;17.67;68.00
28683;BME280;15862;43.062;25.626;2023-02-26T08:01:07;98835.81;;;17.88;66.55
28683;BME280;15862;43.062;25.626;2023-02-26T08:03:33;98820.31;;;18.01;65.13
28683;BME280;15862;43.062;25.626;2023-02-26T08:05:58;98822.84;;;18.16;63.44
28683;BME280;15862;43.062;25.626;2023-02-26T08:08:25;98824.16;;;18.05;62.78
28683;BME280;15862;43.062;25.626;2023-02-26T08:10:51;98831.13;;;18.19;62.73
28683;BME280;15862;43.062;25.626;2023-02-26T08:13:16;98838.00;;;18.20;62.09
28683;BME280;15862;43.062;25.626;2023-02-26T08:15:42;98819.34;;;18.23;62.78
28683;BME280;15862;43.062;25.626;2023-02-26T08:18:08;98795.09;;;18.15;62.53
28683;BME280;15862;43.062;25.626;2023-02-26T08:20:34;98799.66;;;18.27;62.52
28683;BME280;15862;43.062;25.626;2023-02-26T08:22:59;98784.84;;;18.34;61.82
28683;BME280;15862;43.062;25.626;2023-02-26T08:25:25;98797.44;;;18.51;60.19
28683;BME280;15862;43.062;25.626;2023-02-26T08:27:50;98810.34;;;18.53;60.19
28683;BME280;15862;43.062;25.626;2023-02-26T08:30:16;98813.56;;;18.55;59.09
28683;BME280;15862;43.062;25.626;2023-02-26T08:32:41;98813.06;;;18.66;59.17
28683;BME280;15862;43.062;25.626;2023-02-26T08:35:08;98829.81;;;18.71;58.16
28683;BME280;15862;43.062;25.626;2023-02-26T08:37:34;98780.34;;;18.76;56.99
28683;BME280;15862;43.062;25.626;2023-02-26T08:39:59;98808.22;;;18.90;56.87
28683;BME280;15862;43.062;25.626;2023-02-26T08:42:25;98828.31;;;18.90;56.39
28683;BME280;15862;43.062;25.626;2023-02-26T08:44:50;98799.59;;;18.69;57.08
28683;BME280;15862;43.062;25.626;2023-02-26T08:47:16;98806.34;;;18.84;57.02
28683;BME280;15862;43.062;25.626;2023-02-26T08:49:42;98800.59;;;18.68;57.69
28683;BME280;15862;43.062;25.626;2023-02-26T08:52:07;98837.94;;;18.83;56.89
28683;BME280;15862;43.062;25.626;2023-02-26T08:54:33;98837.09;;;18.76;57.21
28683;BME280;15862;43.062;25.626;2023-02-26T08:56:58;98827.53;;;18.89;56.57
28683;BME280;15862;43.062;25.626;2023-02-26T08:59:24;98816.56;;;18.79;56.33
28683;BME280;15862;43.062;25.626;2023-02-26T09:01:49;98824.28;;;18.87;55.87
28683;BME280;15862;43.062;25.626;2023-02-26T09:04:15;98816.69;;;18.92;56.11
28683;BME280;15862;43.062;25.626;2023-02-26T09:06:43;98823.41;;;19.08;55.32
28683;BME280;15862;43.062;25.626;2023-02-26T09:09:09;98815.25;;;19.17;54.45
28683;BME280;15862;43.062;25.626;2023-02-26T09:11:35;98815.81;;;19.53;54.09
28683;BME280;15862;43.062;25.626;2023-02-26T09:14:02;98817.59;;;19.39;53.88
28683;BME280;15862;43.062;25.626;2023-02-26T09:16:28;98810.56;;;19.46;53.75
28683;BME280;15862;43.062;25.626;2023-02-26T09:18:55;98802.88;;;19.38;54.06
28683;BME280;15862;43.062;25.626;2023-02-26T09:21:20;98782.81;;;19.71;52.71
28683;BME280;15862;43.062;25.626;2023-02-26T09:23:46;98800.66;;;19.95;52.01
28683;BME280;15862;43.062;25.626;2023-02-26T09:26:11;98801.72;;;20.39;50.72
28683;BME280;15862;43.062;25.626;2023-02-26T09:28:37;98792.66;;;20.55;49.60
28683;BME280;15862;43.062;25.626;2023-02-26T09:31:02;98803.16;;;20.80;49.36
28683;BME280;15862;43.062;25.626;2023-02-26T09:33:28;98799.09;;;20.72;48.75
28683;BME280;15862;43.062;25.626;2023-02-26T09:35:53;98791.84;;;20.61;48.33
28683;BME280;15862;43.062;25.626;2023-02-26T09:38:19;98795.88;;;20.57;48.63
28683;BME280;15862;43.062;25.626;2023-02-26T09:40:52;98811.03;;;20.55;48.95
28683;BME280;15862;43.062;25.626;2023-02-26T09:46:37;98802.75;;;20.45;48.48
28683;BME280;15862;43.062;25.626;2023-02-26T09:51:45;98782.97;;;20.42;48.66
28683;BME280;15862;43.062;25.626;2023-02-26T09:54:20;98808.16;;;20.11;48.96
28683;BME280;15862;43.062;25.626;2023-02-26T09:56:48;98794.75;;;19.80;50.20
28683;BME280;15862;43.062;25.626;2023-02-26T09:59:14;98794.69;;;19.54;50.69
28683;BME280;15862;43.062;25.626;2023-02-26T10:12:19;98846.34;;;20.46;49.13
28683;BME280;15862;43.062;25.626;2023-02-26T10:18:09;98881.91;;;20.42;48.69
28683;BME280;15862;43.062;25.626;2023-02-26T10:21:00;98875.25;;;20.52;48.33
28683;BME280;15862;43.062;25.626;2023-02-26T10:26:03;98886.53;;;20.66;47.91
28683;BME280;15862;43.062;25.626;2023-02-26T10:28:48;98872.25;;;20.81;47.15
28683;BME280;15862;43.062;25.626;2023-02-26T10:36:54;98845.25;;;19.95;48.91
